Time;durP1;ratioP1;P1;durP2;ratioP2;P2;SDS_P1;SDS_P2;PMS_P1;PMS_P2;Temp;Humidity;BMP_temperature;BMP_pressure;BME280_temperature;BME280_humidity;BME280_pressure;Samples;Min_cycle;Max_cycle;Signal;HPM_P1;HPM_P2
2021/04/29 00:00:40;;;;;;;10.47;7.43;;;14.60;77.50;;;;;;5050364;28;20208;-74
2021/04/29 00:03:06;;;;;;;10.43;7.43;;;14.60;77.20;;;;;;5050054;28;20581;-73
2021/04/29 00:05:32;;;;;;;9.17;7.80;;;14.60;77.10;;;;;;5049716;28;20215;-74
2021/04/29 00:07:58;;;;;;;8.70;7.40;;;14.60;77.60;;;;;;5049980;28;20678;-73
2021/04/29 00:10:29;;;;;;;8.70;7.90;;;14.60;78.00;;;;;;5050235;28;20204;-73
2021/04/29 00:12:56;;;;;;;8.73;7.67;;;14.50;77.90;;;;;;5049826;28;20792;-73
2021/04/29 00:15:23;;;;;;;9.33;7.87;;;14.60;77.60;;;;;;5049683;28;20720;-73
2021/04/29 00:17:49;;;;;;;10.20;7.60;;;14.50;77.40;;;;;;5049472;28;20290;-73
2021/04/29 00:20:18;;;;;;;8.33;6.97;;;14.40;77.90;;;;;;5050169;28;20208;-73
2021/04/29 00:22:45;;;;;;;8.13;7.33;;;14.40;78.40;;;;;;5049990;28;20208;-73
2021/04/29 00:25:13;;;;;;;10.13;7.93;;;14.30;78.70;;;;;;5049963;28;20212;-73
2021/04/29 00:27:39;;;;;;;9.53;7.40;;;14.30;78.90;;;;;;5049832;28;20211;-73
2021/04/29 00:30:07;;;;;;;9.23;7.60;;;14.30;79.00;;;;;;5049790;28;20204;-73
2021/04/29 00:32:34;;;;;;;8.77;7.43;;;14.30;78.90;;;;;;5047986;28;20215;-73
2021/04/29 00:35:00;;;;;;;12.30;8.10;;;14.30;78.70;;;;;;5049832;28;20547;-73
2021/04/29 00:37:27;;;;;;;7.97;7.17;;;14.30;78.80;;;;;;5049301;28;20830;-73
2021/04/29 00:39:53;;;;;;;8.03;7.23;;;14.30;78.70;;;;;;5049592;28;20204;-73
2021/04/29 00:42:19;;;;;;;7.87;7.07;;;14.30;78.90;;;;;;5049701;28;20261;-72
2021/04/29 00:44:45;;;;;;;10.27;7.23;;;14.30;78.90;;;;;;5049390;28;20214;-74
2021/04/29 00:47:11;;;;;;;9.97;8.00;;;14.20;79.00;;;;;;5049683;28;20211;-74
2021/04/29 00:49:39;;;;;;;9.10;7.37;;;14.20;79.20;;;;;;5049619;28;20208;-74
2021/04/29 00:52:06;;;;;;;10.27;7.07;;;14.30;79.10;;;;;;5049194;28;20671;-74
2021/04/29 00:54:32;;;;;;;7.53;6.70;;;14.20;79.00;;;;;;5049479;28;20329;-77
2021/04/29 00:56:58;;;;;;;9.70;7.40;;;14.20;78.90;;;;;;5049356;28;20236;-77
2021/04/29 00:59:24;;;;;;;9.60;7.73;;;14.20;79.30;;;;;;5049775;28;20208;-77
2021/04/29 01:01:55;;;;;;;12.20;7.57;;;14.10;79.60;;;;;;5049335;28;20216;-78
2021/04/29 01:04:26;;;;;;;8.57;7.20;;;14.20;80.10;;;;;;5049621;28;20203;-80
2021/04/29 01:06:58;;;;;;;11.03;7.60;;;14.20;80.30;;;;;;5049298;28;20564;-80
2021/04/29 01:09:29;;;;;;;8.23;7.43;;;14.20;80.70;;;;;;5049378;28;20262;-79
2021/04/29 01:12:00;;;;;;;9.23;7.70;;;14.20;80.40;;;;;;5049157;28;20744;-80
2021/04/29 01:14:28;;;;;;;7.97;7.27;;;14.20;80.10;;;;;;5049314;28;20204;-79
2021/04/29 01:16:55;;;;;;;12.17;7.20;;;14.20;80.00;;;;;;5048910;28;20248;-78
2021/04/29 01:19:22;;;;;;;9.10;7.23;;;14.20;79.80;;;;;;5049472;28;20212;-76
2021/04/29 01:21:49;;;;;;;8.73;7.60;;;14.20;80.10;;;;;;5048619;28;20204;-75
2021/04/29 01:24:20;;;;;;;7.90;6.77;;;14.20;80.30;;;;;;5049092;28;20208;-75
2021/04/29 01:26:52;;;;;;;8.53;7.70;;;14.10;80.00;;;;;;5048396;28;20196;-74
2021/04/29 01:29:21;;;;;;;13.47;8.30;;;14.00;80.30;;;;;;5048884;28;20212;-75
2021/04/29 01:31:49;;;;;;;11.03;7.50;;;13.80;80.60;;;;;;5048619;28;20389;-77
2021/04/29 01:34:17;;;;;;;9.33;7.53;;;13.90;80.80;;;;;;5048876;28;20675;-78
2021/04/29 01:36:45;;;;;;;11.40;7.23;;;13.80;81.00;;;;;;5048631;28;20285;-77
2021/04/29 01:39:14;;;;;;;7.93;7.13;;;13.80;81.40;;;;;;5048873;28;20231;-76
2021/04/29 01:41:43;;;;;;;10.57;7.80;;;13.90;81.60;;;;;;5048614;28;20266;-76
2021/04/29 01:44:12;;;;;;;11.77;7.57;;;13.90;81.60;;;;;;5048321;28;20208;-76
2021/04/29 01:46:38;;;;;;;8.40;7.50;;;13.90;81.20;;;;;;5048350;28;20242;-76
2021/04/29 01:49:06;;;;;;;8.53;7.50;;;13.90;81.30;;;;;;5048580;28;20212;-76
2021/04/29 01:51:32;;;;;;;9.27;7.47;;;13.90;82.00;;;;;;5048493;28;20207;-74
2021/04/29 01:54:00;;;;;;;10.67;7.30;;;14.00;81.50;;;;;;5048292;28;20207;-75
2021/04/29 01:56:27;;;;;;;8.47;7.67;;;14.00;81.00;;;;;;5048111;28;20239;-74
2021/04/29 01:58:53;;;;;;;9.73;7.73;;;14.00;82.00;;;;;;5048350;28;20295;-74
2021/04/29 02:01:20;;;;;;;9.93;7.60;;;14.00;81.00;;;;;;5048204;28;20240;-74
2021/04/29 02:03:46;;;;;;;15.17;7.53;;;14.00;81.50;;;;;;5048078;28;20204;-74
2021/04/29 02:06:13;;;;;;;7.77;7.10;;;14.00;81.60;;;;;;5048145;28;20629;-73
2021/04/29 02:08:39;;;;;;;10.83;7.67;;;14.00;81.00;;;;;;5047918;28;20208;-74
2021/04/29 02:11:05;;;;;;;11.87;7.80;;;14.00;81.40;;;;;;5048129;28;20204;-74
2021/04/29 02:13:33;;;;;;;7.70;6.90;;;14.00;81.60;;;;;;5048222;28;20208;-73
2021/04/29 02:16:05;;;;;;;9.60;7.70;;;13.90;81.90;;;;;;5047723;28;20263;-74
2021/04/29 02:18:33;;;;;;;12.13;7.43;;;13.80;81.90;;;;;;5048452;28;20257;-76
2021/04/29 02:21:00;;;;;;;7.87;7.07;;;13.80;81.70;;;;;;5047897;28;20789;-76
2021/04/29 02:23:29;;;;;;;8.50;7.50;;;13.80;82.20;;;;;;5048284;28;20227;-76
2021/04/29 02:26:00;;;;;;;7.77;6.97;;;13.80;82.20;;;;;;5047961;28;20204;-76
2021/04/29 02:28:28;;;;;;;12.53;7.27;;;13.80;82.40;;;;;;5048090;28;20778;-76
2021/04/29 02:30:54;;;;;;;7.67;6.53;;;13.80;82.50;;;;;;5048046;28;20204;-76
2021/04/29 02:33:21;;;;;;;9.10;7.27;;;13.80;82.20;;;;;;5048268;28;20239;-76
2021/04/29 02:35:49;;;;;;;9.00;7.70;;;13.80;82.30;;;;;;5047867;28;20269;-75
2021/04/29 02:38:17;;;;;;;12.33;7.43;;;13.80;81.70;;;;;;5047898;28;20215;-76
2021/04/29 02:40:44;;;;;;;8.63;6.90;;;13.80;81.70;;;;;;5048225;28;20204;-76
2021/04/29 02:43:12;;;;;;;7.33;6.57;;;13.80;81.80;;;;;;5047819;28;20732;-76
2021/04/29 02:45:38;;;;;;;8.73;7.03;;;13.90;82.00;;;;;;5047918;28;20319;-76
2021/04/29 02:48:05;;;;;;;12.40;7.47;;;13.90;82.40;;;;;;5048170;28;20208;-76
2021/04/29 02:50:31;;;;;;;10.50;6.63;;;13.80;82.80;;;;;;5048130;28;20264;-78
2021/04/29 02:52:59;;;;;;;7.27;6.53;;;13.80;82.60;;;;;;5047850;28;20200;-78
2021/04/29 02:55:26;;;;;;;7.23;6.53;;;13.80;82.90;;;;;;5048452;28;20200;-78
2021/04/29 02:57:59;;;;;;;9.37;6.67;;;13.90;83.00;;;;;;5051730;28;20238;-78
2021/04/29 03:00:26;;;;;;;8.03;7.07;;;13.80;82.30;;;;;;5051932;28;20249;-78
2021/04/29 03:02:52;;;;;;;8.77;6.80;;;13.80;82.30;;;;;;5051266;28;20204;-77
2021/04/29 03:05:18;;;;;;;7.40;6.60;;;13.80;82.10;;;;;;5051679;28;20211;-77
2021/04/29 03:07:44;;;;;;;8.93;7.20;;;13.80;82.10;;;;;;5059810;28;20215;-74
2021/04/29 03:10:12;;;;;;;11.50;7.23;;;13.80;82.20;;;;;;5071450;28;20214;-77
2021/04/29 03:12:39;;;;;;;10.10;7.03;;;13.80;82.60;;;;;;5052718;28;20200;-77
2021/04/29 03:15:07;;;;;;;6.97;6.27;;;13.80;83.20;;;;;;5049282;28;20212;-77
2021/04/29 03:17:34;;;;;;;10.27;6.87;;;13.80;84.10;;;;;;5048959;28;20310;-77
2021/04/29 03:20:00;;;;;;;7.37;6.47;;;13.80;84.20;;;;;;5049273;28;20212;-77
2021/04/29 03:22:26;;;;;;;9.67;6.53;;;13.80;84.50;;;;;;5048823;28;20554;-77
2021/04/29 03:24:54;;;;;;;7.57;6.70;;;13.80;84.20;;;;;;5049055;28;20207;-77
2021/04/29 03:27:22;;;;;;;8.50;6.50;;;13.80;84.20;;;;;;5048704;28;20215;-74
2021/04/29 03:29:49;;;;;;;9.93;6.50;;;13.80;84.70;;;;;;5049421;28;20239;-76
2021/04/29 03:32:15;;;;;;;11.70;7.50;;;13.80;85.10;;;;;;5049568;28;20299;-77
2021/04/29 03:34:41;;;;;;;8.33;6.27;;;13.80;85.40;;;;;;5049340;28;20231;-76
2021/04/29 03:37:08;;;;;;;8.83;7.10;;;13.70;85.00;;;;;;5051388;28;20246;-77
2021/04/29 03:39:34;;;;;;;8.73;7.20;;;13.70;85.00;;;;;;5066360;28;20200;-77
2021/04/29 03:42:00;;;;;;;7.77;6.97;;;13.70;85.20;;;;;;5068439;28;20617;-77
2021/04/29 03:44:27;;;;;;;9.67;7.47;;;13.70;85.50;;;;;;5068830;28;20230;-77
2021/04/29 03:46:54;;;;;;;10.53;7.20;;;13.50;85.60;;;;;;5068589;28;20207;-77
2021/04/29 03:49:20;;;;;;;9.80;7.30;;;13.40;85.70;;;;;;5068330;28;20222;-77
2021/04/29 03:51:46;;;;;;;7.90;7.07;;;13.40;85.70;;;;;;5068554;28;20204;-77
2021/04/29 03:54:12;;;;;;;11.60;7.30;;;13.20;86.10;;;;;;5068367;28;20210;-78
2021/04/29 03:56:38;;;;;;;8.90;7.30;;;13.00;86.80;;;;;;5068678;28;20235;-78
2021/04/29 03:59:05;;;;;;;11.50;7.27;;;13.00;87.80;;;;;;5068179;28;20636;-79
2021/04/29 04:01:32;;;;;;;8.83;7.53;;;13.10;87.80;;;;;;5056971;28;20323;-77
2021/04/29 04:03:58;;;;;;;9.43;7.43;;;13.20;87.70;;;;;;5061031;28;20210;-77
2021/04/29 04:06:24;;;;;;;15.13;7.37;;;13.10;91.00;;;;;;5069186;28;20208;-77
2021/04/29 04:08:50;;;;;;;8.33;7.43;;;13.00;91.70;;;;;;5069796;28;20255;-77
2021/04/29 04:11:16;;;;;;;10.43;7.73;;;13.10;92.50;;;;;;5070412;28;20203;-77
2021/04/29 04:13:42;;;;;;;10.60;7.77;;;13.10;93.00;;;;;;5070296;28;20203;-77
2021/04/29 04:16:11;;;;;;;10.07;7.53;;;13.10;93.00;;;;;;5062027;28;20223;-77
2021/04/29 04:18:38;;;;;;;8.43;7.47;;;13.20;92.60;;;;;;5057854;28;20199;-77
2021/04/29 04:21:05;;;;;;;9.67;7.63;;;13.20;92.80;;;;;;5054480;28;20200;-77
2021/04/29 04:23:31;;;;;;;9.43;7.53;;;13.30;92.70;;;;;;5066415;28;20230;-77
2021/04/29 04:25:57;;;;;;;8.33;7.40;;;13.20;92.60;;;;;;5049050;28;20204;-77
2021/04/29 04:28:23;;;;;;;11.37;8.30;;;13.30;93.30;;;;;;5048771;28;20740;-77
2021/04/29 04:30:50;;;;;;;8.83;7.97;;;13.20;94.80;;;;;;5048936;28;20670;-77
2021/04/29 04:33:16;;;;;;;12.63;8.60;;;13.30;95.60;;;;;;5062590;28;20269;-77
2021/04/29 04:35:43;;;;;;;9.13;8.20;;;13.30;96.60;;;;;;5063734;28;20208;-77
2021/04/29 04:38:09;;;;;;;10.67;8.63;;;13.30;97.10;;;;;;5058268;28;20265;-77
2021/04/29 04:40:35;;;;;;;10.50;8.57;;;13.30;97.20;;;;;;5060369;28;20573;-77
2021/04/29 04:43:03;;;;;;;12.57;8.57;;;13.20;97.40;;;;;;5060178;28;20210;-77
2021/04/29 04:45:30;;;;;;;15.53;9.80;;;13.20;97.20;;;;;;5056281;28;20730;-78
2021/04/29 04:47:56;;;;;;;12.37;10.63;;;13.20;96.90;;;;;;5056758;28;20203;-77
2021/04/29 04:50:22;;;;;;;12.33;10.17;;;13.20;96.60;;;;;;5054607;28;20204;-77
2021/04/29 04:52:51;;;;;;;11.20;10.00;;;13.20;95.70;;;;;;5061283;28;20204;-77
2021/04/29 04:55:18;;;;;;;15.00;10.53;;;13.20;95.80;;;;;;5057240;28;20238;-77
2021/04/29 04:57:44;;;;;;;12.93;10.20;;;13.20;96.10;;;;;;5057238;28;20270;-77
2021/04/29 05:00:14;;;;;;;17.63;10.63;;;13.10;96.60;;;;;;5060131;28;20207;-77
2021/04/29 05:02:40;;;;;;;11.53;9.73;;;13.10;97.00;;;;;;5053624;28;20204;-77
2021/04/29 05:05:07;;;;;;;11.70;9.37;;;13.10;97.10;;;;;;5057907;28;20191;-77
2021/04/29 05:07:34;;;;;;;14.27;9.80;;;13.10;96.90;;;;;;5056399;28;20851;-77
2021/04/29 05:10:01;;;;;;;10.57;9.33;;;13.10;96.90;;;;;;5056750;28;20207;-77
2021/04/29 05:12:27;;;;;;;13.87;9.20;;;13.10;97.00;;;;;;5058801;28;20204;-76
2021/04/29 05:14:54;;;;;;;12.23;9.10;;;13.20;97.20;;;;;;5057951;28;20207;-77
2021/04/29 05:17:20;;;;;;;10.53;9.23;;;13.10;97.50;;;;;;5055634;28;20305;-75
2021/04/29 05:19:46;;;;;;;9.63;8.30;;;13.00;98.90;;;;;;5059507;28;20200;-76
2021/04/29 05:22:14;;;;;;;11.03;8.90;;;13.00;98.80;;;;;;5058203;28;21083;-77
2021/04/29 05:24:41;;;;;;;11.87;9.03;;;13.10;99.20;;;;;;5052019;28;20196;-77
2021/04/29 05:27:08;;;;;;;10.47;9.37;;;13.10;99.30;;;;;;5059041;28;20197;-77
2021/04/29 05:29:34;;;;;;;9.90;8.67;;;13.10;99.90;;;;;;5058912;28;20214;-78
2021/04/29 05:32:00;;;;;;;9.80;8.80;;;13.10;99.90;;;;;;5056147;28;20208;-77
2021/04/29 05:34:26;;;;;;;9.87;8.97;;;13.20;99.90;;;;;;5057697;28;20223;-77
2021/04/29 05:36:52;;;;;;;10.30;9.13;;;13.20;99.90;;;;;;5057480;28;20224;-77
2021/04/29 05:39:19;;;;;;;10.30;9.23;;;13.20;99.90;;;;;;5058674;28;20666;-77
2021/04/29 05:41:45;;;;;;;12.33;9.00;;;13.20;99.90;;;;;;5062171;28;20261;-77
2021/04/29 05:44:13;;;;;;;10.53;8.53;;;13.20;99.90;;;;;;5051088;28;20208;-77
2021/04/29 05:46:41;;;;;;;11.67;8.80;;;13.20;99.90;;;;;;5056112;28;20264;-77
2021/04/29 05:49:10;;;;;;;10.37;9.17;;;13.20;99.90;;;;;;5060487;28;20206;-77
2021/04/29 05:51:36;;;;;;;9.93;8.77;;;13.20;99.90;;;;;;5058226;28;20214;-77
2021/04/29 05:54:02;;;;;;;10.90;9.27;;;13.20;99.90;;;;;;5055467;28;20200;-77
2021/04/29 05:56:29;;;;;;;12.10;10.17;;;13.20;99.90;;;;;;5047394;28;20297;-77
2021/04/29 05:58:55;;;;;;;10.87;8.60;;;13.20;99.90;;;;;;5058309;28;20204;-77
2021/04/29 06:01:22;;;;;;;10.03;9.03;;;13.20;99.90;;;;;;5065015;28;20210;-77
2021/04/29 06:03:48;;;;;;;10.13;8.93;;;13.20;99.90;;;;;;5056306;28;20207;-77
2021/04/29 06:06:15;;;;;;;15.20;9.03;;;13.30;99.90;;;;;;5064398;28;20207;-78
2021/04/29 06:08:41;;;;;;;10.73;9.70;;;13.30;99.90;;;;;;5061058;28;20211;-77
2021/04/29 06:11:07;;;;;;;11.33;10.00;;;13.40;99.90;;;;;;5058216;28;20199;-77
2021/04/29 06:13:34;;;;;;;10.20;9.20;;;13.40;99.90;;;;;;5050496;28;20262;-77
2021/04/29 06:16:00;;;;;;;11.43;10.03;;;13.40;99.90;;;;;;5060462;28;20823;-77
2021/04/29 06:18:27;;;;;;;10.37;9.37;;;13.40;99.90;;;;;;5067377;28;20200;-77
2021/04/29 06:20:53;;;;;;;12.53;10.50;;;13.30;99.90;;;;;;5063511;28;20208;-76
2021/04/29 06:23:19;;;;;;;13.40;9.90;;;13.30;99.90;;;;;;5066912;28;20207;-77
2021/04/29 06:25:45;;;;;;;11.37;10.23;;;13.30;99.90;;;;;;5066594;28;20207;-77
2021/04/29 06:28:11;;;;;;;15.10;10.93;;;13.30;99.90;;;;;;5059246;28;20227;-77
2021/04/29 06:30:40;;;;;;;11.60;10.40;;;13.30;99.90;;;;;;5060876;28;20207;-77
2021/04/29 06:33:06;;;;;;;11.60;9.13;;;13.20;99.90;;;;;;5071631;28;20211;-76
2021/04/29 06:35:33;;;;;;;11.03;9.50;;;13.20;99.90;;;;;;5067177;28;20203;-76
2021/04/29 06:37:59;;;;;;;12.30;9.80;;;13.10;99.90;;;;;;5064745;28;20235;-77
2021/04/29 06:40:26;;;;;;;11.27;10.07;;;13.10;99.90;;;;;;5057234;28;20671;-77
2021/04/29 06:42:52;;;;;;;11.50;9.50;;;13.10;99.90;;;;;;5061812;28;20208;-77
2021/04/29 06:45:18;;;;;;;11.70;10.50;;;13.10;99.90;;;;;;5055260;28;20220;-76
2021/04/29 06:47:44;;;;;;;11.10;9.87;;;13.10;99.90;;;;;;5062535;28;20235;-77
2021/04/29 06:50:11;;;;;;;10.63;9.53;;;13.00;99.90;;;;;;5071586;28;20222;-76
2021/04/29 06:52:38;;;;;;;10.17;9.27;;;13.00;99.90;;;;;;5071568;28;20207;-77
2021/04/29 06:55:05;;;;;;;11.50;10.23;;;12.90;99.90;;;;;;5066492;28;20210;-76
2021/04/29 06:57:31;;;;;;;11.23;9.27;;;12.90;99.90;;;;;;5070690;28;20232;-77
2021/04/29 06:59:57;;;;;;;11.37;9.80;;;12.90;99.90;;;;;;5071376;28;20200;-77
2021/04/29 07:02:24;;;;;;;12.30;10.63;;;12.90;99.90;;;;;;5071237;28;20241;-76
2021/04/29 07:04:50;;;;;;;11.53;10.27;;;13.00;99.90;;;;;;5070976;28;20200;-76
2021/04/29 07:07:16;;;;;;;12.40;9.73;;;12.90;99.90;;;;;;5070969;28;20204;-77
2021/04/29 07:09:43;;;;;;;15.43;9.90;;;12.90;99.90;;;;;;5071213;28;20747;-76
2021/04/29 07:12:09;;;;;;;13.33;10.43;;;12.90;99.90;;;;;;5062463;28;20204;-75
2021/04/29 07:14:35;;;;;;;13.50;10.50;;;12.90;99.90;;;;;;5054700;28;20208;-79
2021/04/29 07:17:01;;;;;;;10.60;9.53;;;12.90;99.90;;;;;;5070579;28;20250;-76
2021/04/29 07:19:28;;;;;;;10.37;9.03;;;12.90;99.90;;;;;;5071167;28;20200;-77
2021/04/29 07:21:54;;;;;;;11.70;10.50;;;12.90;99.90;;;;;;5070960;28;20219;-76
2021/04/29 07:24:20;;;;;;;11.17;9.80;;;12.90;99.90;;;;;;5063694;28;20214;-76
2021/04/29 07:26:47;;;;;;;10.07;9.03;;;13.00;99.90;;;;;;5063091;28;20242;-76
2021/04/29 07:29:13;;;;;;;12.53;10.23;;;12.90;99.90;;;;;;5070771;28;20215;-76
2021/04/29 07:31:39;;;;;;;10.37;9.30;;;12.90;99.90;;;;;;5070913;28;20200;-76
2021/04/29 07:34:05;;;;;;;10.87;9.87;;;12.80;99.90;;;;;;5070633;28;20203;-76
2021/04/29 07:36:33;;;;;;;11.70;9.77;;;12.80;99.90;;;;;;5070560;28;20227;-76
2021/04/29 07:38:59;;;;;;;10.97;9.63;;;12.80;99.90;;;;;;5070290;28;20234;-72
2021/04/29 07:41:28;;;;;;;10.50;9.60;;;12.80;99.90;;;;;;5060123;28;20576;-74
2021/04/29 07:43:56;;;;;;;13.60;10.10;;;12.80;99.90;;;;;;5058825;28;20231;-77
2021/04/29 07:46:23;;;;;;;10.93;9.87;;;12.80;99.90;;;;;;5068278;28;20314;-78
2021/04/29 07:48:49;;;;;;;10.33;9.43;;;12.70;99.90;;;;;;5070458;28;20617;-77
2021/04/29 07:51:15;;;;;;;10.07;9.17;;;12.70;99.90;;;;;;5070354;28;20657;-78
2021/04/29 07:53:44;;;;;;;10.80;9.70;;;12.70;99.90;;;;;;5059018;28;20204;-82
2021/04/29 07:56:10;;;;;;;10.03;9.23;;;12.70;99.90;;;;;;5070044;28;20200;-77
2021/04/29 07:58:36;;;;;;;10.90;9.90;;;12.60;99.90;;;;;;5070292;28;20204;-77
2021/04/29 08:01:03;;;;;;;10.97;9.87;;;12.60;99.90;;;;;;5070330;28;20286;-77
2021/04/29 08:03:29;;;;;;;10.93;9.83;;;12.60;99.90;;;;;;5053878;28;20349;-77
2021/04/29 08:05:56;;;;;;;11.23;10.10;;;12.60;99.90;;;;;;5069847;28;20666;-77
2021/04/29 08:08:22;;;;;;;10.27;9.37;;;12.60;99.90;;;;;;5070185;28;20261;-77
2021/04/29 08:10:48;;;;;;;10.67;9.67;;;12.60;99.90;;;;;;5070171;28;20204;-77
2021/04/29 08:13:14;;;;;;;9.87;8.93;;;12.60;99.90;;;;;;5070211;28;20203;-77
2021/04/29 08:15:42;;;;;;;10.13;9.23;;;12.50;99.90;;;;;;5050384;28;20208;-80
2021/04/29 08:18:09;;;;;;;10.03;9.13;;;12.50;99.90;;;;;;5056856;28;20281;-77
2021/04/29 08:20:36;;;;;;;10.33;9.33;;;12.40;99.90;;;;;;5070016;28;20590;-77
2021/04/29 08:23:03;;;;;;;10.43;9.43;;;12.40;99.90;;;;;;5069977;28;20235;-77
2021/04/29 08:25:29;;;;;;;9.70;8.90;;;12.30;99.90;;;;;;5069664;28;20210;-77
2021/04/29 08:27:55;;;;;;;10.20;9.30;;;12.30;99.90;;;;;;5069689;28;20563;-78
2021/04/29 08:30:26;;;;;;;10.10;9.17;;;12.30;99.90;;;;;;5060941;28;20219;-77
2021/04/29 08:32:52;;;;;;;10.33;9.27;;;12.30;99.90;;;;;;5062666;28;20666;-77
2021/04/29 08:35:20;;;;;;;10.40;9.43;;;12.30;99.90;;;;;;5064664;28;20203;-77
2021/04/29 08:37:46;;;;;;;10.13;9.23;;;12.40;99.90;;;;;;5069510;28;20258;-78
2021/04/29 08:40:12;;;;;;;10.87;9.87;;;12.30;99.90;;;;;;5069737;28;20203;-77
2021/04/29 08:42:39;;;;;;;10.87;9.83;;;12.30;99.90;;;;;;5069678;28;20206;-76
2021/04/29 08:45:06;;;;;;;11.43;10.27;;;12.40;99.90;;;;;;5056485;28;20290;-77
2021/04/29 08:47:32;;;;;;;10.70;9.67;;;12.40;99.90;;;;;;5051629;28;20215;-77
2021/04/29 08:49:58;;;;;;;10.77;9.70;;;12.40;99.90;;;;;;5069479;28;20257;-76
2021/04/29 08:52:25;;;;;;;10.50;9.43;;;12.40;99.90;;;;;;5069501;28;20202;-77
2021/04/29 08:54:52;;;;;;;11.10;10.00;;;12.40;99.90;;;;;;5068053;28;20211;-77
2021/04/29 08:57:18;;;;;;;10.50;9.60;;;12.50;99.90;;;;;;5069247;28;20254;-77
2021/04/29 08:59:44;;;;;;;13.17;10.03;;;12.40;99.90;;;;;;5069356;28;20199;-77
2021/04/29 09:02:10;;;;;;;10.60;9.70;;;12.30;99.90;;;;;;5068386;28;20210;-77
2021/04/29 09:04:43;;;;;;;11.07;10.07;;;12.40;99.90;;;;;;5063669;28;20243;-77
2021/04/29 09:07:13;;;;;;;11.43;10.23;;;12.30;99.90;;;;;;5067754;28;20214;-77
2021/04/29 09:09:41;;;;;;;11.00;9.97;;;12.30;99.90;;;;;;5069078;28;20230;-81
2021/04/29 09:12:08;;;;;;;11.13;9.97;;;12.40;99.90;;;;;;5069150;28;20652;-77
2021/04/29 09:14:35;;;;;;;11.10;10.00;;;12.40;99.90;;;;;;5067625;28;20219;-77
2021/04/29 09:17:01;;;;;;;11.80;10.60;;;12.30;99.90;;;;;;5066969;28;20676;-77
2021/04/29 09:19:29;;;;;;;11.70;10.43;;;12.30;99.90;;;;;;5067981;28;20207;-77
2021/04/29 09:21:56;;;;;;;12.37;11.07;;;12.40;99.90;;;;;;5067741;28;20210;-77
2021/04/29 09:24:31;;;;;;;14.33;10.70;;;12.40;99.90;;;;;;5068147;28;20203;-78
2021/04/29 09:27:09;;;;;;;11.53;10.33;;;12.50;99.90;;;;;;5067960;28;20198;-77
2021/04/29 09:29:35;;;;;;;12.13;11.00;;;12.50;99.90;;;;;;5068693;28;20567;-77
2021/04/29 09:32:01;;;;;;;12.33;11.13;;;12.50;99.90;;;;;;5069071;28;20231;-77
2021/04/29 09:34:37;;;;;;;12.40;11.30;;;12.60;99.90;;;;;;5069049;28;20257;-77
2021/04/29 09:37:04;;;;;;;14.03;12.63;;;12.60;99.90;;;;;;5068814;28;20277;-77
2021/04/29 09:39:33;;;;;;;12.70;11.50;;;12.70;99.90;;;;;;5068615;28;20990;-77
2021/04/29 09:42:00;;;;;;;11.93;10.83;;;12.70;99.90;;;;;;5068889;28;20207;-77
2021/04/29 09:44:27;;;;;;;12.50;11.30;;;12.70;99.90;;;;;;5068700;28;20231;-77
2021/04/29 09:46:55;;;;;;;14.80;12.77;;;12.70;99.90;;;;;;5068765;28;20207;-78
2021/04/29 09:49:23;;;;;;;12.67;11.50;;;12.70;99.90;;;;;;5068897;28;20207;-78
2021/04/29 09:51:50;;;;;;;13.97;12.47;;;12.70;99.90;;;;;;5068361;28;20213;-77
2021/04/29 09:54:26;;;;;;;14.37;12.87;;;12.70;99.90;;;;;;5068638;28;20226;-77
2021/04/29 09:56:54;;;;;;;14.53;13.00;;;12.80;99.90;;;;;;5068560;28;20227;-77
2021/04/29 09:59:20;;;;;;;15.03;13.60;;;12.90;99.90;;;;;;5068371;28;20650;-78
2021/04/29 10:01:47;;;;;;;14.53;13.07;;;12.80;99.90;;;;;;5068580;28;20207;-77
2021/04/29 10:04:14;;;;;;;14.47;13.17;;;12.90;99.90;;;;;;5067826;28;20212;-78
2021/04/29 10:06:40;;;;;;;14.13;12.93;;;13.00;99.90;;;;;;5068361;28;20222;-77
2021/04/29 10:09:06;;;;;;;16.33;14.83;;;13.20;99.90;;;;;;5068533;28;20215;-77
2021/04/29 10:11:33;;;;;;;16.53;15.00;;;13.20;99.90;;;;;;5068456;28;20218;-78
2021/04/29 10:14:01;;;;;;;18.00;16.23;;;12.90;99.90;;;;;;5068088;28;20218;-77
2021/04/29 10:16:29;;;;;;;19.60;17.80;;;13.00;99.90;;;;;;5068310;28;20243;-77
2021/04/29 10:18:56;;;;;;;23.27;20.27;;;12.90;99.90;;;;;;5068249;28;20206;-78
2021/04/29 10:21:24;;;;;;;22.87;20.33;;;12.70;99.90;;;;;;5067955;28;20218;-78
2021/04/29 10:23:50;;;;;;;23.33;20.83;;;12.50;99.90;;;;;;5068204;28;20207;-77
2021/04/29 10:26:25;;;;;;;25.83;21.33;;;12.40;99.90;;;;;;5068199;28;20575;-78
2021/04/29 10:28:58;;;;;;;24.27;21.87;;;12.20;99.90;;;;;;5068246;28;20222;-77
2021/04/29 10:31:25;;;;;;;25.07;22.50;;;12.30;99.90;;;;;;5068346;28;20191;-77
2021/04/29 10:33:54;;;;;;;24.77;22.10;;;12.50;99.90;;;;;;5068239;28;20208;-77
2021/04/29 10:36:22;;;;;;;24.77;21.00;;;12.40;99.90;;;;;;5068132;28;20203;-78
2021/04/29 10:38:49;;;;;;;24.43;21.93;;;12.50;99.90;;;;;;5068068;28;20203;-78
2021/04/29 10:41:21;;;;;;;23.80;21.50;;;12.60;99.90;;;;;;5067995;28;20623;-78
2021/04/29 10:43:48;;;;;;;24.37;21.80;;;12.80;99.90;;;;;;5068050;28;20684;-78
2021/04/29 10:46:29;;;;;;;24.07;21.67;;;12.70;99.90;;;;;;5068046;28;20207;-77
2021/04/29 10:48:56;;;;;;;24.70;22.20;;;12.60;99.90;;;;;;5067996;28;20203;-77
2021/04/29 10:51:32;;;;;;;22.97;20.67;;;12.90;99.90;;;;;;5067754;28;20646;-77
2021/04/29 10:54:15;;;;;;;23.37;21.27;;;12.80;99.90;;;;;;5068231;28;20206;-77
2021/04/29 10:56:42;;;;;;;24.40;22.00;;;12.70;99.90;;;;;;5065915;28;20231;-77
2021/04/29 10:59:11;;;;;;;23.33;20.77;;;12.80;99.90;;;;;;5067711;28;20269;-78
2021/04/29 11:01:43;;;;;;;25.00;22.53;;;12.70;99.90;;;;;;5067942;28;20200;-77
2021/04/29 11:04:17;;;;;;;23.47;21.13;;;12.70;99.90;;;;;;5067758;28;20211;-78
2021/04/29 11:06:45;;;;;;;24.07;21.87;;;12.70;99.90;;;;;;5067940;28;20210;-77
2021/04/29 11:09:19;;;;;;;23.13;20.93;;;12.90;99.90;;;;;;5067899;28;20208;-77
2021/04/29 11:11:46;;;;;;;22.97;20.87;;;13.10;99.90;;;;;;5067849;28;20215;-77
2021/04/29 11:14:14;;;;;;;22.33;20.20;;;13.30;99.90;;;;;;5067494;28;20215;-78
2021/04/29 11:16:51;;;;;;;22.43;20.33;;;13.50;99.90;;;;;;5068289;28;20235;-77
2021/04/29 11:19:36;;;;;;;23.03;20.93;;;13.80;99.90;;;;;;5071005;28;20198;-78
2021/04/29 11:22:04;;;;;;;22.80;20.60;;;13.80;99.90;;;;;;5071259;28;20195;-77
2021/04/29 11:24:35;;;;;;;23.77;21.27;;;13.90;99.90;;;;;;5071197;28;20257;-77
2021/04/29 11:27:01;;;;;;;23.03;20.83;;;14.10;99.90;;;;;;5070987;28;20230;-77
2021/04/29 11:29:36;;;;;;;22.63;20.43;;;14.20;99.90;;;;;;5071015;28;20658;-77
2021/04/29 11:32:03;;;;;;;22.57;20.47;;;14.20;99.90;;;;;;5071444;28;20199;-77
2021/04/29 11:34:42;;;;;;;20.97;19.07;;;14.30;99.90;;;;;;5070844;28;20203;-77
2021/04/29 11:37:09;;;;;;;22.77;20.67;;;14.30;99.90;;;;;;5070672;28;20754;-77
2021/04/29 11:39:35;;;;;;;21.57;19.57;;;14.20;99.90;;;;;;5070996;28;20677;-77
2021/04/29 11:42:02;;;;;;;22.53;20.43;;;14.40;99.90;;;;;;5070855;28;20204;-77
2021/04/29 11:44:28;;;;;;;20.10;18.23;;;14.60;99.90;;;;;;5071204;28;20277;-78
2021/04/29 11:46:55;;;;;;;19.43;17.63;;;14.60;99.90;;;;;;5070943;28;20211;-77
2021/04/29 11:49:21;;;;;;;18.57;16.90;;;14.50;99.90;;;;;;5070912;28;20696;-78
2021/04/29 11:51:49;;;;;;;19.00;17.30;;;14.30;99.90;;;;;;5070870;28;20237;-78
2021/04/29 11:54:18;;;;;;;20.27;18.57;;;14.40;99.90;;;;;;5070930;28;20203;-77
2021/04/29 11:56:46;;;;;;;20.37;18.47;;;14.50;99.90;;;;;;5070910;28;20203;-78
2021/04/29 11:59:12;;;;;;;19.20;17.33;;;14.90;99.90;;;;;;5070718;28;20415;-78
2021/04/29 12:01:40;;;;;;;18.93;17.23;;;15.00;99.90;;;;;;5070962;28;20203;-78
2021/04/29 12:04:16;;;;;;;20.70;18.70;;;15.30;99.90;;;;;;5070780;28;20203;-78
2021/04/29 12:06:50;;;;;;;16.93;15.40;;;15.60;99.90;;;;;;5070799;28;20230;-78
2021/04/29 12:09:18;;;;;;;17.10;15.50;;;15.80;99.90;;;;;;5070355;28;20203;-77
2021/04/29 12:11:44;;;;;;;18.73;16.93;;;15.80;99.90;;;;;;5070724;28;20207;-78
2021/04/29 12:14:13;;;;;;;18.10;16.50;;;15.70;99.90;;;;;;5070342;28;20207;-78
2021/04/29 12:16:40;;;;;;;17.53;15.93;;;15.50;99.90;;;;;;5070122;28;20301;-78
2021/04/29 12:19:07;;;;;;;17.00;15.40;;;15.40;99.90;;;;;;5070201;28;20204;-78
2021/04/29 12:21:34;;;;;;;18.13;16.30;;;15.30;99.90;;;;;;5070504;28;20227;-77
2021/04/29 12:24:01;;;;;;;16.57;15.07;;;15.40;99.90;;;;;;5070321;28;20218;-78
2021/04/29 12:26:33;;;;;;;16.77;15.37;;;15.50;99.90;;;;;;5070233;28;20211;-78
2021/04/29 12:29:02;;;;;;;16.53;15.00;;;15.50;99.90;;;;;;5069779;28;20642;-78
2021/04/29 12:31:28;;;;;;;17.07;15.50;;;15.50;99.90;;;;;;5070092;28;20820;-78
2021/04/29 12:34:00;;;;;;;18.93;16.30;;;15.40;99.90;;;;;;5070000;28;20794;-78
2021/04/29 12:36:26;;;;;;;17.53;15.93;;;15.60;99.90;;;;;;5069849;28;20811;-78